sensor_id;sensor_type;location;lat;lon;timestamp;P1;durP1;ratioP1;P2;durP2;ratioP2
23288;SDS011;11813;50.834;4.280;2023-04-24T00:01:24;24.03;;;15.10;;
23288;SDS011;11813;50.834;4.280;2023-04-24T00:03:50;27.50;;;15.37;;
23288;SDS011;11813;50.834;4.280;2023-04-24T00:06:16;34.93;;;16.07;;
23288;SDS011;11813;50.834;4.280;2023-04-24T00:08:42;31.60;;;15.50;;
23288;SDS011;11813;50.834;4.280;2023-04-24T00:11:08;27.07;;;15.70;;
23288;SDS011;11813;50.834;4.280;2023-04-24T00:13:34;27.50;;;15.80;;
23288;SDS011;11813;50.834;4.280;2023-04-24T00:16:00;29.97;;;15.60;;
23288;SDS011;11813;50.834;4.280;2023-04-24T00:18:25;28.50;;;15.60;;
23288;SDS011;11813;50.834;4.280;2023-04-24T00:20:51;24.87;;;16.00;;
23288;SDS011;11813;50.834;4.280;2023-04-24T00:23:17;26.03;;;15.27;;
23288;SDS011;11813;50.834;4.280;2023-04-24T00:25:42;31.43;;;16.67;;
23288;SDS011;11813;50.834;4.280;2023-04-24T00:28:08;30.93;;;16.50;;
23288;SDS011;11813;50.834;4.280;2023-04-24T00:30:35;34.33;;;15.80;;
23288;SDS011;11813;50.834;4.280;2023-04-24T00:33:01;30.67;;;16.63;;
23288;SDS011;11813;50.834;4.280;2023-04-24T00:35:26;24.43;;;16.17;;
23288;SDS011;11813;50.834;4.280;2023-04-24T00:37:52;27.30;;;16.57;;
23288;SDS011;11813;50.834;4.280;2023-04-24T00:40:18;28.47;;;17.83;;
23288;SDS011;11813;50.834;4.280;2023-04-24T00:42:43;28.87;;;17.07;;
23288;SDS011;11813;50.834;4.280;2023-04-24T00:45:09;29.67;;;16.50;;
23288;SDS011;11813;50.834;4.280;2023-04-24T00:47:35;30.43;;;17.40;;
23288;SDS011;11813;50.834;4.280;2023-04-24T00:50:04;30.90;;;16.43;;
23288;SDS011;11813;50.834;4.280;2023-04-24T00:52:31;26.20;;;16.77;;
23288;SDS011;11813;50.834;4.280;2023-04-24T00:54:57;30.33;;;16.97;;
23288;SDS011;11813;50.834;4.280;2023-04-24T00:57:23;26.23;;;16.33;;
23288;SDS011;11813;50.834;4.280;2023-04-24T00:59:50;28.33;;;16.47;;
23288;SDS011;11813;50.834;4.280;2023-04-24T01:02:18;29.80;;;16.70;;
23288;SDS011;11813;50.834;4.280;2023-04-24T01:04:44;34.87;;;18.17;;
23288;SDS011;11813;50.834;4.280;2023-04-24T01:07:10;32.27;;;17.60;;
23288;SDS011;11813;50.834;4.280;2023-04-24T01:09:42;34.07;;;16.57;;
23288;SDS011;11813;50.834;4.280;2023-04-24T01:12:12;32.57;;;16.33;;
23288;SDS011;11813;50.834;4.280;2023-04-24T01:14:37;35.43;;;17.07;;
23288;SDS011;11813;50.834;4.280;2023-04-24T01:17:03;32.67;;;15.87;;
23288;SDS011;11813;50.834;4.280;2023-04-24T01:19:29;31.83;;;17.23;;
23288;SDS011;11813;50.834;4.280;2023-04-24T01:21:54;24.10;;;15.83;;
23288;SDS011;11813;50.834;4.280;2023-04-24T01:24:24;26.70;;;16.03;;
23288;SDS011;11813;50.834;4.280;2023-04-24T01:26:49;28.43;;;16.13;;
23288;SDS011;11813;50.834;4.280;2023-04-24T01:29:15;24.43;;;15.17;;
23288;SDS011;11813;50.834;4.280;2023-04-24T01:31:41;24.37;;;15.20;;
23288;SDS011;11813;50.834;4.280;2023-04-24T01:34:07;25.23;;;15.83;;
23288;SDS011;11813;50.834;4.280;2023-04-24T01:36:33;23.87;;;15.30;;
23288;SDS011;11813;50.834;4.280;2023-04-24T01:39:01;23.33;;;14.60;;
23288;SDS011;11813;50.834;4.280;2023-04-24T01:41:27;28.43;;;15.77;;
23288;SDS011;11813;50.834;4.280;2023-04-24T01:43:54;26.40;;;15.57;;
23288;SDS011;11813;50.834;4.280;2023-04-24T01:46:20;25.37;;;14.13;;
23288;SDS011;11813;50.834;4.280;2023-04-24T01:48:45;24.47;;;14.23;;
23288;SDS011;11813;50.834;4.280;2023-04-24T01:51:12;27.13;;;15.87;;
23288;SDS011;11813;50.834;4.280;2023-04-24T01:53:37;25.83;;;15.87;;
23288;SDS011;11813;50.834;4.280;2023-04-24T01:56:03;22.77;;;14.87;;
23288;SDS011;11813;50.834;4.280;2023-04-24T01:58:29;22.73;;;14.27;;
23288;SDS011;11813;50.834;4.280;2023-04-24T02:00:58;24.90;;;15.10;;
23288;SDS011;11813;50.834;4.280;2023-04-24T02:03:25;24.43;;;17.03;;
23288;SDS011;11813;50.834;4.280;2023-04-24T02:05:51;28.80;;;16.67;;
23288;SDS011;11813;50.834;4.280;2023-04-24T02:08:17;23.07;;;16.53;;
23288;SDS011;11813;50.834;4.280;2023-04-24T02:10:42;24.83;;;17.20;;
23288;SDS011;11813;50.834;4.280;2023-04-24T02:13:08;25.77;;;16.40;;
23288;SDS011;11813;50.834;4.280;2023-04-24T02:15:34;23.57;;;14.23;;
23288;SDS011;11813;50.834;4.280;2023-04-24T02:18:00;21.73;;;14.90;;
23288;SDS011;11813;50.834;4.280;2023-04-24T02:20:26;25.63;;;15.43;;
23288;SDS011;11813;50.834;4.280;2023-04-24T02:22:52;25.57;;;16.83;;
23288;SDS011;11813;50.834;4.280;2023-04-24T02:25:17;23.37;;;16.17;;
23288;SDS011;11813;50.834;4.280;2023-04-24T02:27:43;22.40;;;16.53;;
23288;SDS011;11813;50.834;4.280;2023-04-24T02:30:09;24.43;;;15.97;;
23288;SDS011;11813;50.834;4.280;2023-04-24T02:32:35;25.63;;;16.57;;
23288;SDS011;11813;50.834;4.280;2023-04-24T02:35:00;26.27;;;15.73;;
23288;SDS011;11813;50.834;4.280;2023-04-24T02:37:26;23.47;;;15.70;;
23288;SDS011;11813;50.834;4.280;2023-04-24T02:39:52;21.97;;;15.37;;
23288;SDS011;11813;50.834;4.280;2023-04-24T02:42:17;26.83;;;15.70;;
23288;SDS011;11813;50.834;4.280;2023-04-24T02:44:43;28.63;;;15.97;;
23288;SDS011;11813;50.834;4.280;2023-04-24T02:47:08;29.53;;;15.90;;
23288;SDS011;11813;50.834;4.280;2023-04-24T02:49:34;23.57;;;15.13;;
23288;SDS011;11813;50.834;4.280;2023-04-24T02:52:00;21.30;;;15.03;;
23288;SDS011;11813;50.834;4.280;2023-04-24T02:54:25;27.20;;;15.97;;
23288;SDS011;11813;50.834;4.280;2023-04-24T02:56:51;28.50;;;15.30;;
23288;SDS011;11813;50.834;4.280;2023-04-24T02:59:16;24.47;;;14.93;;
23288;SDS011;11813;50.834;4.280;2023-04-24T03:01:42;22.83;;;14.40;;
23288;SDS011;11813;50.834;4.280;2023-04-24T03:04:07;24.43;;;14.50;;
23288;SDS011;11813;50.834;4.280;2023-04-24T03:06:33;21.97;;;13.43;;
23288;SDS011;11813;50.834;4.280;2023-04-24T03:09:00;21.13;;;14.43;;
23288;SDS011;11813;50.834;4.280;2023-04-24T03:11:26;23.53;;;14.50;;
23288;SDS011;11813;50.834;4.280;2023-04-24T03:13:51;28.03;;;14.20;;
23288;SDS011;11813;50.834;4.280;2023-04-24T03:16:17;20.00;;;13.53;;
23288;SDS011;11813;50.834;4.280;2023-04-24T03:18:43;23.03;;;13.13;;
23288;SDS011;11813;50.834;4.280;2023-04-24T03:21:08;22.57;;;13.37;;
23288;SDS011;11813;50.834;4.280;2023-04-24T03:23:34;20.50;;;12.97;;
23288;SDS011;11813;50.834;4.280;2023-04-24T03:25:59;20.97;;;14.13;;
23288;SDS011;11813;50.834;4.280;2023-04-24T03:28:25;18.10;;;11.97;;
23288;SDS011;11813;50.834;4.280;2023-04-24T03:30:51;18.60;;;12.23;;
23288;SDS011;11813;50.834;4.280;2023-04-24T03:33:17;18.93;;;13.03;;
23288;SDS011;11813;50.834;4.280;2023-04-24T03:35:42;16.17;;;11.93;;
23288;SDS011;11813;50.834;4.280;2023-04-24T03:38:08;19.97;;;12.47;;
23288;SDS011;11813;50.834;4.280;2023-04-24T03:40:33;19.43;;;11.57;;
23288;SDS011;11813;50.834;4.280;2023-04-24T03:42:59;19.60;;;12.00;;
23288;SDS011;11813;50.834;4.280;2023-04-24T03:45:25;18.97;;;11.73;;
23288;SDS011;11813;50.834;4.280;2023-04-24T03:47:50;16.57;;;10.83;;
23288;SDS011;11813;50.834;4.280;2023-04-24T03:50:16;15.57;;;10.37;;
23288;SDS011;11813;50.834;4.280;2023-04-24T03:52:42;15.10;;;11.37;;
23288;SDS011;11813;50.834;4.280;2023-04-24T03:55:07;16.20;;;11.20;;
23288;SDS011;11813;50.834;4.280;2023-04-24T03:57:33;15.27;;;10.47;;
23288;SDS011;11813;50.834;4.280;2023-04-24T03:59:59;15.83;;;10.10;;
23288;SDS011;11813;50.834;4.280;2023-04-24T04:02:24;16.70;;;10.70;;
23288;SDS011;11813;50.834;4.280;2023-04-24T04:04:50;15.77;;;10.73;;
23288;SDS011;11813;50.834;4.280;2023-04-24T04:07:16;14.47;;;9.33;;
23288;SDS011;11813;50.834;4.280;2023-04-24T04:09:41;12.03;;;9.40;;
23288;SDS011;11813;50.834;4.280;2023-04-24T04:12:07;13.00;;;8.57;;
23288;SDS011;11813;50.834;4.280;2023-04-24T04:14:32;12.30;;;8.20;;
23288;SDS011;11813;50.834;4.280;2023-04-24T04:16:58;12.03;;;8.80;;
23288;SDS011;11813;50.834;4.280;2023-04-24T04:19:24;12.27;;;8.57;;
23288;SDS011;11813;50.834;4.280;2023-04-24T04:21:49;12.13;;;8.50;;
23288;SDS011;11813;50.834;4.280;2023-04-24T04:24:18;12.33;;;8.67;;
23288;SDS011;11813;50.834;4.280;2023-04-24T04:26:46;10.70;;;8.27;;
23288;SDS011;11813;50.834;4.280;2023-04-24T04:29:12;11.73;;;7.67;;
23288;SDS011;11813;50.834;4.280;2023-04-24T04:31:38;15.37;;;8.50;;
23288;SDS011;11813;50.834;4.280;2023-04-24T04:34:04;11.47;;;8.03;;
23288;SDS011;11813;50.834;4.280;2023-04-24T04:36:30;12.20;;;8.17;;
23288;SDS011;11813;50.834;4.280;2023-04-24T04:38:56;16.20;;;8.13;;
23288;SDS011;11813;50.834;4.280;2023-04-24T04:41:24;14.63;;;8.43;;
23288;SDS011;11813;50.834;4.280;2023-04-24T04:43:50;15.97;;;9.17;;
23288;SDS011;11813;50.834;4.280;2023-04-24T04:46:15;16.27;;;11.47;;
23288;SDS011;11813;50.834;4.280;2023-04-24T04:48:41;21.63;;;11.77;;
23288;SDS011;11813;50.834;4.280;2023-04-24T04:51:07;26.87;;;11.87;;
23288;SDS011;11813;50.834;4.280;2023-04-24T04:53:32;23.17;;;12.13;;
23288;SDS011;11813;50.834;4.280;2023-04-24T04:55:58;21.30;;;12.77;;
23288;SDS011;11813;50.834;4.280;2023-04-24T04:58:24;21.10;;;12.40;;
23288;SDS011;11813;50.834;4.280;2023-04-24T05:00:50;22.63;;;12.77;;
23288;SDS011;11813;50.834;4.280;2023-04-24T05:03:16;24.73;;;14.07;;
23288;SDS011;11813;50.834;4.280;2023-04-24T05:05:41;21.47;;;13.60;;
23288;SDS011;11813;50.834;4.280;2023-04-24T05:08:07;24.37;;;14.10;;
23288;SDS011;11813;50.834;4.280;2023-04-24T05:10:33;19.90;;;13.20;;
23288;SDS011;11813;50.834;4.280;2023-04-24T05:13:01;22.33;;;13.93;;
23288;SDS011;11813;50.834;4.280;2023-04-24T05:15:27;25.53;;;14.13;;
23288;SDS011;11813;50.834;4.280;2023-04-24T05:17:53;21.53;;;13.90;;
23288;SDS011;11813;50.834;4.280;2023-04-24T05:20:19;24.67;;;14.33;;
23288;SDS011;11813;50.834;4.280;2023-04-24T05:22:44;27.17;;;14.60;;
23288;SDS011;11813;50.834;4.280;2023-04-24T05:25:10;24.33;;;14.27;;
23288;SDS011;11813;50.834;4.280;2023-04-24T05:27:37;22.50;;;14.37;;
23288;SDS011;11813;50.834;4.280;2023-04-24T05:30:03;23.87;;;13.57;;
23288;SDS011;11813;50.834;4.280;2023-04-24T05:32:29;29.80;;;15.80;;
23288;SDS011;11813;50.834;4.280;2023-04-24T05:34:55;23.27;;;13.23;;
23288;SDS011;11813;50.834;4.280;2023-04-24T05:37:21;24.23;;;11.37;;
23288;SDS011;11813;50.834;4.280;2023-04-24T05:39:46;21.90;;;12.23;;
23288;SDS011;11813;50.834;4.280;2023-04-24T05:42:12;19.63;;;12.03;;
23288;SDS011;11813;50.834;4.280;2023-04-24T05:44:37;21.37;;;13.33;;
23288;SDS011;11813;50.834;4.280;2023-04-24T05:47:03;21.33;;;11.93;;
23288;SDS011;11813;50.834;4.280;2023-04-24T05:49:29;17.20;;;11.93;;
23288;SDS011;11813;50.834;4.280;2023-04-24T05:51:54;24.77;;;12.93;;
23288;SDS011;11813;50.834;4.280;2023-04-24T05:54:20;16.23;;;11.20;;
23288;SDS011;11813;50.834;4.280;2023-04-24T05:56:46;24.00;;;12.50;;
23288;SDS011;11813;50.834;4.280;2023-04-24T05:59:11;21.60;;;12.90;;
23288;SDS011;11813;50.834;4.280;2023-04-24T06:01:37;21.10;;;12.20;;
23288;SDS011;11813;50.834;4.280;2023-04-24T06:04:03;26.67;;;12.63;;
23288;SDS011;11813;50.834;4.280;2023-04-24T06:06:29;21.33;;;12.73;;
23288;SDS011;11813;50.834;4.280;2023-04-24T06:08:54;23.87;;;13.23;;
23288;SDS011;11813;50.834;4.280;2023-04-24T06:11:20;23.07;;;13.37;;
23288;SDS011;11813;50.834;4.280;2023-04-24T06:13:46;19.40;;;13.10;;
23288;SDS011;11813;50.834;4.280;2023-04-24T06:16:11;25.37;;;13.70;;
23288;SDS011;11813;50.834;4.280;2023-04-24T06:18:37;25.33;;;13.97;;
23288;SDS011;11813;50.834;4.280;2023-04-24T06:21:03;28.20;;;14.83;;
23288;SDS011;11813;50.834;4.280;2023-04-24T06:23:29;22.67;;;13.27;;
23288;SDS011;11813;50.834;4.280;2023-04-24T06:25:57;23.80;;;12.83;;
23288;SDS011;11813;50.834;4.280;2023-04-24T06:28:23;29.17;;;14.17;;
23288;SDS011;11813;50.834;4.280;2023-04-24T06:30:48;31.00;;;14.33;;
23288;SDS011;11813;50.834;4.280;2023-04-24T06:33:14;25.30;;;14.13;;
23288;SDS011;11813;50.834;4.280;2023-04-24T06:35:39;26.90;;;15.50;;
23288;SDS011;11813;50.834;4.280;2023-04-24T06:38:05;26.90;;;14.23;;
23288;SDS011;11813;50.834;4.280;2023-04-24T06:40:31;32.67;;;15.57;;
23288;SDS011;11813;50.834;4.280;2023-04-24T06:42:56;28.30;;;15.37;;
23288;SDS011;11813;50.834;4.280;2023-04-24T06:45:25;24.60;;;13.30;;
23288;SDS011;11813;50.834;4.280;2023-04-24T06:47:50;30.57;;;16.87;;
23288;SDS011;11813;50.834;4.280;2023-04-24T06:50:16;42.63;;;17.97;;
23288;SDS011;11813;50.834;4.280;2023-04-24T06:52:42;38.37;;;16.13;;
23288;SDS011;11813;50.834;4.280;2023-04-24T06:55:08;35.57;;;18.77;;
23288;SDS011;11813;50.834;4.280;2023-04-24T06:57:33;26.00;;;15.13;;
23288;SDS011;11813;50.834;4.280;2023-04-24T06:59:59;29.87;;;16.90;;
23288;SDS011;11813;50.834;4.280;2023-04-24T07:02:25;33.10;;;16.63;;
23288;SDS011;11813;50.834;4.280;2023-04-24T07:04:50;36.23;;;17.97;;
23288;SDS011;11813;50.834;4.280;2023-04-24T07:07:17;29.60;;;16.87;;
23288;SDS011;11813;50.834;4.280;2023-04-24T07:09:43;32.97;;;15.40;;
23288;SDS011;11813;50.834;4.280;2023-04-24T07:12:10;25.93;;;15.30;;
23288;SDS011;11813;50.834;4.280;2023-04-24T07:14:36;32.30;;;16.90;;
23288;SDS011;11813;50.834;4.280;2023-04-24T07:17:03;27.40;;;15.07;;
23288;SDS011;11813;50.834;4.280;2023-04-24T07:19:30;31.67;;;16.80;;
23288;SDS011;11813;50.834;4.280;2023-04-24T07:21:56;26.17;;;15.67;;
23288;SDS011;11813;50.834;4.280;2023-04-24T07:24:23;34.93;;;15.37;;
23288;SDS011;11813;50.834;4.280;2023-04-24T07:26:50;31.10;;;16.13;;
23288;SDS011;11813;50.834;4.280;2023-04-24T07:29:16;23.93;;;14.83;;
23288;SDS011;11813;50.834;4.280;2023-04-24T07:31:42;32.33;;;15.80;;
23288;SDS011;11813;50.834;4.280;2023-04-24T07:34:08;29.30;;;16.87;;
23288;SDS011;11813;50.834;4.280;2023-04-24T07:36:33;37.37;;;15.93;;
23288;SDS011;11813;50.834;4.280;2023-04-24T07:38:59;29.93;;;15.30;;
23288;SDS011;11813;50.834;4.280;2023-04-24T07:41:25;26.97;;;15.80;;
23288;SDS011;11813;50.834;4.280;2023-04-24T07:43:52;30.10;;;17.37;;
23288;SDS011;11813;50.834;4.280;2023-04-24T07:46:18;25.33;;;14.97;;
23288;SDS011;11813;50.834;4.280;2023-04-24T07:48:45;34.83;;;16.97;;
23288;SDS011;11813;50.834;4.280;2023-04-24T07:51:12;29.80;;;15.63;;
23288;SDS011;11813;50.834;4.280;2023-04-24T07:53:39;28.67;;;14.70;;
23288;SDS011;11813;50.834;4.280;2023-04-24T07:56:05;29.70;;;13.23;;
23288;SDS011;11813;50.834;4.280;2023-04-24T07:58:31;27.87;;;13.20;;
23288;SDS011;11813;50.834;4.280;2023-04-24T08:00:56;21.53;;;12.03;;
23288;SDS011;11813;50.834;4.280;2023-04-24T08:03:22;19.20;;;10.60;;
23288;SDS011;11813;50.834;4.280;2023-04-24T08:05:48;24.47;;;12.00;;
23288;SDS011;11813;50.834;4.280;2023-04-24T08:08:15;16.83;;;10.43;;
23288;SDS011;11813;50.834;4.280;2023-04-24T08:10:41;17.53;;;10.43;;
23288;SDS011;11813;50.834;4.280;2023-04-24T08:13:07;19.40;;;10.37;;
23288;SDS011;11813;50.834;4.280;2023-04-24T08:15:33;18.90;;;9.60;;
23288;SDS011;11813;50.834;4.280;2023-04-24T08:17:58;20.33;;;9.53;;
23288;SDS011;11813;50.834;4.280;2023-04-24T08:20:24;21.23;;;10.00;;
23288;SDS011;11813;50.834;4.280;2023-04-24T08:22:50;24.43;;;9.83;;
23288;SDS011;11813;50.834;4.280;2023-04-24T08:25:18;17.10;;;9.70;;
23288;SDS011;11813;50.834;4.280;2023-04-24T08:27:44;22.60;;;9.30;;
23288;SDS011;11813;50.834;4.280;2023-04-24T08:30:10;18.77;;;9.07;;
23288;SDS011;11813;50.834;4.280;2023-04-24T08:32:36;18.33;;;9.07;;
23288;SDS011;11813;50.834;4.280;2023-04-24T08:35:02;15.17;;;8.33;;
23288;SDS011;11813;50.834;4.280;2023-04-24T08:37:28;16.77;;;9.60;;
23288;SDS011;11813;50.834;4.280;2023-04-24T08:39:54;18.43;;;8.63;;
23288;SDS011;11813;50.834;4.280;2023-04-24T08:42:20;21.33;;;9.33;;
23288;SDS011;11813;50.834;4.280;2023-04-24T08:44:46;17.20;;;8.37;;
23288;SDS011;11813;50.834;4.280;2023-04-24T08:47:14;11.03;;;7.73;;
23288;SDS011;11813;50.834;4.280;2023-04-24T08:49:40;16.27;;;7.90;;
23288;SDS011;11813;50.834;4.280;2023-04-24T08:52:06;20.37;;;7.40;;
23288;SDS011;11813;50.834;4.280;2023-04-24T08:54:33;22.30;;;7.37;;
23288;SDS011;11813;50.834;4.280;2023-04-24T08:57:00;10.50;;;6.67;;
23288;SDS011;11813;50.834;4.280;2023-04-24T08:59:28;10.37;;;6.10;;
23288;SDS011;11813;50.834;4.280;2023-04-24T09:01:55;11.00;;;6.30;;
23288;SDS011;11813;50.834;4.280;2023-04-24T09:04:22;10.63;;;6.13;;
23288;SDS011;11813;50.834;4.280;2023-04-24T09:06:49;11.80;;;6.57;;
23288;SDS011;11813;50.834;4.280;2023-04-24T09:09:22;13.17;;;7.57;;
23288;SDS011;11813;50.834;4.280;2023-04-24T09:11:50;12.17;;;5.97;;
23288;SDS011;11813;50.834;4.280;2023-04-24T09:14:18;8.13;;;5.17;;
23288;SDS011;11813;50.834;4.280;2023-04-24T09:16:44;12.93;;;5.67;;
23288;SDS011;11813;50.834;4.280;2023-04-24T09:19:10;11.97;;;5.10;;
23288;SDS011;11813;50.834;4.280;2023-04-24T09:21:36;12.57;;;5.37;;
23288;SDS011;11813;50.834;4.280;2023-04-24T09:24:03;15.40;;;6.40;;
23288;SDS011;11813;50.834;4.280;2023-04-24T09:26:33;12.27;;;4.97;;
23288;SDS011;11813;50.834;4.280;2023-04-24T09:29:01;11.43;;;6.07;;
23288;SDS011;11813;50.834;4.280;2023-04-24T09:31:28;9.93;;;5.30;;
23288;SDS011;11813;50.834;4.280;2023-04-24T09:33:56;19.63;;;5.60;;
23288;SDS011;11813;50.834;4.280;2023-04-24T09:36:30;7.10;;;4.27;;
23288;SDS011;11813;50.834;4.280;2023-04-24T09:39:02;9.90;;;4.40;;
23288;SDS011;11813;50.834;4.280;2023-04-24T09:41:31;12.43;;;4.80;;
23288;SDS011;11813;50.834;4.280;2023-04-24T09:43:58;10.60;;;4.90;;
23288;SDS011;11813;50.834;4.280;2023-04-24T09:46:46;11.00;;;5.10;;
23288;SDS011;11813;50.834;4.280;2023-04-24T09:49:16;7.70;;;4.27;;
23288;SDS011;11813;50.834;4.280;2023-04-24T09:51:45;10.73;;;5.27;;
23288;SDS011;11813;50.834;4.280;2023-04-24T09:54:17;12.73;;;4.97;;
23288;SDS011;11813;50.834;4.280;2023-04-24T09:56:48;10.17;;;5.03;;
23288;SDS011;11813;50.834;4.280;2023-04-24T09:59:15;7.93;;;4.70;;
23288;SDS011;11813;50.834;4.280;2023-04-24T10:01:42;8.37;;;5.17;;
23288;SDS011;11813;50.834;4.280;2023-04-24T10:04:22;10.90;;;4.70;;
23288;SDS011;11813;50.834;4.280;2023-04-24T10:06:49;10.17;;;5.30;;
23288;SDS011;11813;50.834;4.280;2023-04-24T10:09:17;12.10;;;5.43;;
23288;SDS011;11813;50.834;4.280;2023-04-24T10:11:44;8.73;;;4.70;;
23288;SDS011;11813;50.834;4.280;2023-04-24T10:14:12;13.07;;;5.67;;
23288;SDS011;11813;50.834;4.280;2023-04-24T10:16:39;12.70;;;5.13;;
23288;SDS011;11813;50.834;4.280;2023-04-24T10:19:05;12.60;;;5.77;;
23288;SDS011;11813;50.834;4.280;2023-04-24T10:21:32;13.83;;;6.10;;
23288;SDS011;11813;50.834;4.280;2023-04-24T10:23:59;13.90;;;5.37;;
23288;SDS011;11813;50.834;4.280;2023-04-24T10:26:28;8.53;;;5.50;;
23288;SDS011;11813;50.834;4.280;2023-04-24T10:28:54;11.47;;;5.50;;
23288;SDS011;11813;50.834;4.280;2023-04-24T10:31:23;13.47;;;6.60;;
23288;SDS011;11813;50.834;4.280;2023-04-24T10:33:49;11.33;;;6.43;;
23288;SDS011;11813;50.834;4.280;2023-04-24T10:36:16;14.93;;;6.60;;
23288;SDS011;11813;50.834;4.280;2023-04-24T10:38:43;10.47;;;6.20;;
23288;SDS011;11813;50.834;4.280;2023-04-24T10:41:11;13.30;;;6.53;;
23288;SDS011;11813;50.834;4.280;2023-04-24T10:43:41;9.60;;;6.73;;
23288;SDS011;11813;50.834;4.280;2023-04-24T10:46:07;14.07;;;7.13;;
23288;SDS011;11813;50.834;4.280;2023-04-24T10:48:35;11.27;;;6.27;;
23288;SDS011;11813;50.834;4.280;2023-04-24T10:51:10;14.17;;;7.17;;
23288;SDS011;11813;50.834;4.280;2023-04-24T10:53:37;12.77;;;6.43;;
23288;SDS011;11813;50.834;4.280;2023-04-24T10:56:07;11.87;;;6.80;;
23288;SDS011;11813;50.834;4.280;2023-04-24T10:58:39;11.53;;;7.07;;
23288;SDS011;11813;50.834;4.280;2023-04-24T11:01:28;15.37;;;7.33;;
23288;SDS011;11813;50.834;4.280;2023-04-24T11:04:01;14.73;;;7.63;;
23288;SDS011;11813;50.834;4.280;2023-04-24T11:06:31;15.00;;;6.67;;
23288;SDS011;11813;50.834;4.280;2023-04-24T11:09:03;12.50;;;6.87;;
23288;SDS011;11813;50.834;4.280;2023-04-24T11:11:37;9.30;;;5.70;;
23288;SDS011;11813;50.834;4.280;2023-04-24T11:14:06;6.30;;;4.80;;
23288;SDS011;11813;50.834;4.280;2023-04-24T11:16:41;8.00;;;4.50;;
23288;SDS011;11813;50.834;4.280;2023-04-24T11:21:47;12.30;;;7.13;;
23288;SDS011;11813;50.834;4.280;2023-04-24T11:24:23;7.67;;;5.50;;
23288;SDS011;11813;50.834;4.280;2023-04-24T11:26:53;10.90;;;6.60;;
23288;SDS011;11813;50.834;4.280;2023-04-24T11:30:29;11.80;;;7.13;;
23288;SDS011;11813;50.834;4.280;2023-04-24T11:40:01;10.13;;;6.73;;
23288;SDS011;11813;50.834;4.280;2023-04-24T11:42:28;18.40;;;7.73;;
23288;SDS011;11813;50.834;4.280;2023-04-24T11:44:59;15.03;;;7.90;;
23288;SDS011;11813;50.834;4.280;2023-04-24T11:47:30;17.80;;;8.67;;
23288;SDS011;11813;50.834;4.280;2023-04-24T11:49:58;15.10;;;7.53;;
23288;SDS011;11813;50.834;4.280;2023-04-24T11:52:25;17.83;;;8.60;;
23288;SDS011;11813;50.834;4.280;2023-04-24T11:54:51;10.93;;;5.83;;
23288;SDS011;11813;50.834;4.280;2023-04-24T11:57:20;12.80;;;7.00;;
23288;SDS011;11813;50.834;4.280;2023-04-24T11:59:47;16.13;;;8.60;;
23288;SDS011;11813;50.834;4.280;2023-04-24T12:02:25;13.20;;;7.57;;
23288;SDS011;11813;50.834;4.280;2023-04-24T12:04:52;12.33;;;7.40;;
23288;SDS011;11813;50.834;4.280;2023-04-24T12:07:19;14.37;;;8.03;;
23288;SDS011;11813;50.834;4.280;2023-04-24T12:09:45;12.70;;;8.00;;
23288;SDS011;11813;50.834;4.280;2023-04-24T12:12:13;13.67;;;7.77;;
23288;SDS011;11813;50.834;4.280;2023-04-24T12:14:43;16.40;;;7.73;;
23288;SDS011;11813;50.834;4.280;2023-04-24T12:17:23;14.07;;;8.13;;
23288;SDS011;11813;50.834;4.280;2023-04-24T12:19:56;12.23;;;7.37;;
23288;SDS011;11813;50.834;4.280;2023-04-24T12:22:23;10.97;;;7.17;;
23288;SDS011;11813;50.834;4.280;2023-04-24T12:24:58;15.67;;;8.07;;
23288;SDS011;11813;50.834;4.280;2023-04-24T12:27:28;9.67;;;6.13;;
23288;SDS011;11813;50.834;4.280;2023-04-24T12:30:01;11.37;;;7.00;;
23288;SDS011;11813;50.834;4.280;2023-04-24T12:32:29;11.77;;;6.40;;
23288;SDS011;11813;50.834;4.280;2023-04-24T12:34:55;13.63;;;7.60;;
23288;SDS011;11813;50.834;4.280;2023-04-24T12:37:24;12.10;;;8.20;;
23288;SDS011;11813;50.834;4.280;2023-04-24T12:40:01;8.70;;;6.50;;
23288;SDS011;11813;50.834;4.280;2023-04-24T12:42:32;12.80;;;7.13;;
23288;SDS011;11813;50.834;4.280;2023-04-24T12:45:00;11.63;;;6.80;;
23288;SDS011;11813;50.834;4.280;2023-04-24T12:47:28;7.73;;;6.10;;
23288;SDS011;11813;50.834;4.280;2023-04-24T12:49:55;8.83;;;5.93;;
23288;SDS011;11813;50.834;4.280;2023-04-24T12:52:25;12.43;;;6.80;;
23288;SDS011;11813;50.834;4.280;2023-04-24T12:54:58;10.37;;;6.03;;
23288;SDS011;11813;50.834;4.280;2023-04-24T12:57:25;10.70;;;5.60;;
23288;SDS011;11813;50.834;4.280;2023-04-24T12:59:57;9.13;;;6.37;;
23288;SDS011;11813;50.834;4.280;2023-04-24T13:02:24;8.63;;;4.20;;
23288;SDS011;11813;50.834;4.280;2023-04-24T13:04:52;13.53;;;6.40;;
23288;SDS011;11813;50.834;4.280;2023-04-24T13:07:18;7.87;;;5.57;;
23288;SDS011;11813;50.834;4.280;2023-04-24T13:09:44;7.97;;;5.43;;
23288;SDS011;11813;50.834;4.280;2023-04-24T13:12:11;13.23;;;5.30;;
23288;SDS011;11813;50.834;4.280;2023-04-24T13:14:37;8.27;;;5.10;;
23288;SDS011;11813;50.834;4.280;2023-04-24T13:17:03;6.50;;;4.90;;
23288;SDS011;11813;50.834;4.280;2023-04-24T13:19:29;9.17;;;5.10;;
23288;SDS011;11813;50.834;4.280;2023-04-24T13:21:56;6.17;;;4.53;;
23288;SDS011;11813;50.834;4.280;2023-04-24T13:24:25;9.77;;;4.40;;
23288;SDS011;11813;50.834;4.280;2023-04-24T13:26:51;6.60;;;4.30;;
23288;SDS011;11813;50.834;4.280;2023-04-24T13:29:17;8.57;;;4.10;;
23288;SDS011;11813;50.834;4.280;2023-04-24T13:31:43;5.97;;;4.50;;
23288;SDS011;11813;50.834;4.280;2023-04-24T13:34:09;7.30;;;4.00;;
23288;SDS011;11813;50.834;4.280;2023-04-24T13:36:35;7.37;;;3.83;;
23288;SDS011;11813;50.834;4.280;2023-04-24T13:39:01;7.40;;;3.50;;
23288;SDS011;11813;50.834;4.280;2023-04-24T13:41:29;6.57;;;3.77;;
23288;SDS011;11813;50.834;4.280;2023-04-24T13:43:55;4.47;;;3.40;;
23288;SDS011;11813;50.834;4.280;2023-04-24T13:46:20;8.63;;;3.90;;
23288;SDS011;11813;50.834;4.280;2023-04-24T13:48:46;6.77;;;3.70;;
23288;SDS011;11813;50.834;4.280;2023-04-24T13:51:12;7.10;;;3.20;;
23288;SDS011;11813;50.834;4.280;2023-04-24T13:53:37;5.07;;;3.53;;
23288;SDS011;11813;50.834;4.280;2023-04-24T13:56:04;8.70;;;3.40;;
23288;SDS011;11813;50.834;4.280;2023-04-24T13:58:30;6.67;;;3.47;;
23288;SDS011;11813;50.834;4.280;2023-04-24T14:00:57;7.73;;;3.70;;
23288;SDS011;11813;50.834;4.280;2023-04-24T14:03:23;7.03;;;3.10;;
23288;SDS011;11813;50.834;4.280;2023-04-24T14:05:48;5.00;;;3.10;;
23288;SDS011;11813;50.834;4.280;2023-04-24T14:08:14;9.70;;;3.30;;
23288;SDS011;11813;50.834;4.280;2023-04-24T14:10:40;5.73;;;3.17;;
23288;SDS011;11813;50.834;4.280;2023-04-24T14:13:07;11.97;;;3.03;;
23288;SDS011;11813;50.834;4.280;2023-04-24T14:15:32;5.67;;;2.70;;
23288;SDS011;11813;50.834;4.280;2023-04-24T14:17:58;9.57;;;2.60;;
23288;SDS011;11813;50.834;4.280;2023-04-24T14:20:23;5.03;;;3.17;;
23288;SDS011;11813;50.834;4.280;2023-04-24T14:22:49;6.90;;;2.87;;
23288;SDS011;11813;50.834;4.280;2023-04-24T14:25:15;3.63;;;2.87;;
23288;SDS011;11813;50.834;4.280;2023-04-24T14:27:40;5.50;;;2.90;;
23288;SDS011;11813;50.834;4.280;2023-04-24T14:30:07;8.57;;;2.50;;
23288;SDS011;11813;50.834;4.280;2023-04-24T14:32:33;3.87;;;2.37;;
23288;SDS011;11813;50.834;4.280;2023-04-24T14:34:59;3.63;;;2.53;;
23288;SDS011;11813;50.834;4.280;2023-04-24T14:37:24;3.50;;;2.50;;
23288;SDS011;11813;50.834;4.280;2023-04-24T14:39:50;4.33;;;2.40;;